sensor_id;sensor_type;location;lat;lon;timestamp;pressure;altitude;pressure_sealevel;temperature;humidity
76998;BME280;65930;48.874;10.734;2023-02-28T00:01:38;96626.94;;;-2.81;69.58
76998;BME280;65930;48.874;10.734;2023-02-28T00:04:07;96615.09;;;-2.85;69.73
76998;BME280;65930;48.874;10.734;2023-02-28T00:06:36;96619.28;;;-2.79;69.79
76998;BME280;65930;48.874;10.734;2023-02-28T00:09:04;96614.56;;;-2.87;69.79
76998;BME280;65930;48.874;10.734;2023-02-28T00:11:32;96616.19;;;-2.86;69.79
76998;BME280;65930;48.874;10.734;2023-02-28T00:14:00;96598.59;;;-2.89;70.44
76998;BME280;65930;48.874;10.734;2023-02-28T00:16:28;96609.84;;;-2.82;69.45
76998;BME280;65930;48.874;10.734;2023-02-28T00:18:56;96610.56;;;-2.90;70.79
76998;BME280;65930;48.874;10.734;2023-02-28T00:21:25;96607.75;;;-2.85;69.78
76998;BME280;65930;48.874;10.734;2023-02-28T00:23:53;96606.72;;;-2.89;70.37
76998;BME280;65930;48.874;10.734;2023-02-28T00:26:21;96602.00;;;-2.97;70.85
76998;BME280;65930;48.874;10.734;2023-02-28T00:28:51;96600.00;;;-2.91;70.39
76998;BME280;65930;48.874;10.734;2023-02-28T00:31:19;96604.63;;;-2.92;70.87
76998;BME280;65930;48.874;10.734;2023-02-28T00:33:47;96596.69;;;-2.88;70.24
76998;BME280;65930;48.874;10.734;2023-02-28T00:36:15;96602.81;;;-2.96;71.48
76998;BME280;65930;48.874;10.734;2023-02-28T00:38:44;96598.41;;;-3.06;71.22
76998;BME280;65930;48.874;10.734;2023-02-28T00:41:12;96617.28;;;-3.01;71.13
76998;BME280;65930;48.874;10.734;2023-02-28T00:43:40;96603.44;;;-2.99;71.35
76998;BME280;65930;48.874;10.734;2023-02-28T00:46:08;96600.81;;;-3.04;71.08
76998;BME280;65930;48.874;10.734;2023-02-28T00:48:36;96595.59;;;-3.01;71.64
76998;BME280;65930;48.874;10.734;2023-02-28T00:51:04;96600.22;;;-3.01;71.25
76998;BME280;65930;48.874;10.734;2023-02-28T00:53:32;96600.00;;;-3.05;71.33
76998;BME280;65930;48.874;10.734;2023-02-28T00:56:02;96598.91;;;-3.04;71.84
76998;BME280;65930;48.874;10.734;2023-02-28T00:58:30;96600.81;;;-3.04;71.82
76998;BME280;65930;48.874;10.734;2023-02-28T01:00:58;96594.41;;;-3.08;71.78
76998;BME280;65930;48.874;10.734;2023-02-28T01:03:26;96591.38;;;-3.07;71.42
76998;BME280;65930;48.874;10.734;2023-02-28T01:05:54;96598.59;;;-3.02;71.80
76998;BME280;65930;48.874;10.734;2023-02-28T01:08:22;96595.22;;;-3.08;71.30
76998;BME280;65930;48.874;10.734;2023-02-28T01:10:50;96591.25;;;-3.16;72.09
76998;BME280;65930;48.874;10.734;2023-02-28T01:13:20;96601.63;;;-3.18;71.85
76998;BME280;65930;48.874;10.734;2023-02-28T01:15:52;96594.25;;;-3.17;72.24
76998;BME280;65930;48.874;10.734;2023-02-28T01:18:21;96585.22;;;-3.13;71.80
76998;BME280;65930;48.874;10.734;2023-02-28T01:20:49;96583.94;;;-3.15;71.93
76998;BME280;65930;48.874;10.734;2023-02-28T01:23:18;96587.56;;;-3.06;71.92
76998;BME280;65930;48.874;10.734;2023-02-28T01:25:46;96587.16;;;-3.13;71.89
76998;BME280;65930;48.874;10.734;2023-02-28T01:28:14;96589.38;;;-3.15;71.51
76998;BME280;65930;48.874;10.734;2023-02-28T01:30:47;96592.69;;;-3.18;71.76
76998;BME280;65930;48.874;10.734;2023-02-28T01:33:15;96592.16;;;-3.20;72.08
76998;BME280;65930;48.874;10.734;2023-02-28T01:35:43;96588.97;;;-3.22;71.67
76998;BME280;65930;48.874;10.734;2023-02-28T01:38:11;96578.81;;;-3.30;72.34
76998;BME280;65930;48.874;10.734;2023-02-28T01:40:49;96581.75;;;-3.13;71.91
76998;BME280;65930;48.874;10.734;2023-02-28T01:43:22;96581.94;;;-3.23;72.10
76998;BME280;65930;48.874;10.734;2023-02-28T01:45:53;96593.56;;;-3.36;73.37
76998;BME280;65930;48.874;10.734;2023-02-28T01:48:26;96586.09;;;-3.44;73.81
76998;BME280;65930;48.874;10.734;2023-02-28T01:50:59;96585.00;;;-3.43;73.05
76998;BME280;65930;48.874;10.734;2023-02-28T01:53:33;96590.09;;;-3.56;73.78
76998;BME280;65930;48.874;10.734;2023-02-28T01:56:04;96589.09;;;-3.60;74.03
76998;BME280;65930;48.874;10.734;2023-02-28T01:58:33;96579.94;;;-3.64;74.31
76998;BME280;65930;48.874;10.734;2023-02-28T02:01:03;96586.47;;;-3.65;74.28
76998;BME280;65930;48.874;10.734;2023-02-28T02:03:31;96580.47;;;-3.62;74.26
76998;BME280;65930;48.874;10.734;2023-02-28T02:06:00;96585.34;;;-3.64;74.24
76998;BME280;65930;48.874;10.734;2023-02-28T02:08:28;96581.63;;;-3.68;74.66
76998;BME280;65930;48.874;10.734;2023-02-28T02:11:00;96586.66;;;-3.75;74.82
76998;BME280;65930;48.874;10.734;2023-02-28T02:13:40;96578.44;;;-3.70;74.65
76998;BME280;65930;48.874;10.734;2023-02-28T02:16:28;96578.44;;;-3.70;74.99
76998;BME280;65930;48.874;10.734;2023-02-28T02:19:14;96579.41;;;-3.79;75.59
76998;BME280;65930;48.874;10.734;2023-02-28T02:22:09;96572.66;;;-3.82;75.76
76998;BME280;65930;48.874;10.734;2023-02-28T02:25:03;96574.19;;;-3.76;75.16
76998;BME280;65930;48.874;10.734;2023-02-28T02:28:00;96572.66;;;-3.82;75.89
76998;BME280;65930;48.874;10.734;2023-02-28T02:31:06;96559.44;;;-3.83;75.98
76998;BME280;65930;48.874;10.734;2023-02-28T02:34:09;96563.06;;;-3.88;76.11
76998;BME280;65930;48.874;10.734;2023-02-28T02:36:50;96565.31;;;-3.95;75.64
76998;BME280;65930;48.874;10.734;2023-02-28T02:39:29;96559.91;;;-3.95;75.58
76998;BME280;65930;48.874;10.734;2023-02-28T02:42:01;96552.88;;;-3.96;75.91
76998;BME280;65930;48.874;10.734;2023-02-28T02:44:39;96558.28;;;-3.96;75.73
76998;BME280;65930;48.874;10.734;2023-02-28T02:47:15;96569.78;;;-4.04;76.15
76998;BME280;65930;48.874;10.734;2023-02-28T02:49:49;96555.16;;;-4.03;76.02
76998;BME280;65930;48.874;10.734;2023-02-28T02:52:25;96552.47;;;-4.03;76.55
76998;BME280;65930;48.874;10.734;2023-02-28T02:54:58;96553.56;;;-4.04;77.02
76998;BME280;65930;48.874;10.734;2023-02-28T02:57:32;96559.19;;;-4.01;76.84
76998;BME280;65930;48.874;10.734;2023-02-28T03:00:04;96561.19;;;-4.06;76.28
76998;BME280;65930;48.874;10.734;2023-02-28T03:02:37;96560.66;;;-4.08;76.57
76998;BME280;65930;48.874;10.734;2023-02-28T03:05:14;96566.06;;;-4.08;76.53
76998;BME280;65930;48.874;10.734;2023-02-28T03:07:44;96569.72;;;-3.99;76.57
76998;BME280;65930;48.874;10.734;2023-02-28T03:10:43;96554.88;;;-4.02;76.23
76998;BME280;65930;48.874;10.734;2023-02-28T03:13:34;96559.06;;;-4.09;76.25
76998;BME280;65930;48.874;10.734;2023-02-28T03:16:24;96571.13;;;-4.02;76.40
76998;BME280;65930;48.874;10.734;2023-02-28T03:19:06;96568.41;;;-4.02;76.81
76998;BME280;65930;48.874;10.734;2023-02-28T03:21:49;96577.69;;;-4.08;76.38
76998;BME280;65930;48.874;10.734;2023-02-28T03:24:30;96562.47;;;-4.04;75.99
76998;BME280;65930;48.874;10.734;2023-02-28T03:27:08;96570.03;;;-4.19;76.60
76998;BME280;65930;48.874;10.734;2023-02-28T03:29:42;96573.97;;;-4.12;77.03
76998;BME280;65930;48.874;10.734;2023-02-28T03:32:19;96568.56;;;-4.12;77.14
76998;BME280;65930;48.874;10.734;2023-02-28T03:34:58;96567.25;;;-4.14;76.97
76998;BME280;65930;48.874;10.734;2023-02-28T03:37:35;96574.06;;;-4.17;77.69
76998;BME280;65930;48.874;10.734;2023-02-28T03:40:08;96566.97;;;-4.13;76.72
76998;BME280;65930;48.874;10.734;2023-02-28T03:42:42;96571.56;;;-4.13;77.38
76998;BME280;65930;48.874;10.734;2023-02-28T03:45:18;96563.03;;;-4.20;77.31
76998;BME280;65930;48.874;10.734;2023-02-28T03:50:25;96565.63;;;-4.15;76.84
76998;BME280;65930;48.874;10.734;2023-02-28T03:53:02;96573.66;;;-4.10;76.46
76998;BME280;65930;48.874;10.734;2023-02-28T03:55:37;96579.06;;;-4.10;77.22
76998;BME280;65930;48.874;10.734;2023-02-28T03:58:15;96585.53;;;-4.06;76.92
76998;BME280;65930;48.874;10.734;2023-02-28T04:00:49;96573.19;;;-4.12;76.81
76998;BME280;65930;48.874;10.734;2023-02-28T04:03:18;96585.53;;;-4.06;76.92
76998;BME280;65930;48.874;10.734;2023-02-28T04:05:50;96586.31;;;-4.06;76.82
76998;BME280;65930;48.874;10.734;2023-02-28T04:08:21;96587.13;;;-4.05;76.88
76998;BME280;65930;48.874;10.734;2023-02-28T04:10:56;96576.22;;;-4.00;76.96
76998;BME280;65930;48.874;10.734;2023-02-28T04:13:25;96578.44;;;-4.02;76.96
76998;BME280;65930;48.874;10.734;2023-02-28T04:15:53;96574.13;;;-4.03;77.20
76998;BME280;65930;48.874;10.734;2023-02-28T04:18:21;96577.41;;;-4.06;77.18
76998;BME280;65930;48.874;10.734;2023-02-28T04:20:49;96580.00;;;-4.01;76.79
76998;BME280;65930;48.874;10.734;2023-02-28T04:23:17;96585.75;;;-4.03;76.66
76998;BME280;65930;48.874;10.734;2023-02-28T04:25:46;96584.78;;;-3.93;76.20
76998;BME280;65930;48.874;10.734;2023-02-28T04:28:16;96582.88;;;-3.92;76.92
76998;BME280;65930;48.874;10.734;2023-02-28T04:30:44;96583.03;;;-4.03;76.52
76998;BME280;65930;48.874;10.734;2023-02-28T04:33:11;96580.53;;;-3.99;77.17
76998;BME280;65930;48.874;10.734;2023-02-28T04:35:39;96575.56;;;-3.92;76.55
76998;BME280;65930;48.874;10.734;2023-02-28T04:38:07;96580.25;;;-3.97;76.68
76998;BME280;65930;48.874;10.734;2023-02-28T04:40:35;96577.31;;;-4.01;76.93
76998;BME280;65930;48.874;10.734;2023-02-28T04:43:04;96583.31;;;-4.04;77.09
76998;BME280;65930;48.874;10.734;2023-02-28T04:45:32;96587.72;;;-4.08;76.88
76998;BME280;65930;48.874;10.734;2023-02-28T04:48:00;96588.56;;;-3.94;76.75
76998;BME280;65930;48.874;10.734;2023-02-28T04:50:28;96595.44;;;-3.83;76.78
76998;BME280;65930;48.874;10.734;2023-02-28T04:52:56;96581.91;;;-3.83;76.67
76998;BME280;65930;48.874;10.734;2023-02-28T04:55:24;96585.88;;;-3.94;76.38
76998;BME280;65930;48.874;10.734;2023-02-28T04:57:52;96587.97;;;-3.91;76.64
76998;BME280;65930;48.874;10.734;2023-02-28T05:00:24;96579.97;;;-3.82;75.90
76998;BME280;65930;48.874;10.734;2023-02-28T05:02:52;96589.31;;;-3.88;76.92
76998;BME280;65930;48.874;10.734;2023-02-28T05:05:20;96596.22;;;-3.82;76.62
76998;BME280;65930;48.874;10.734;2023-02-28T05:07:48;96603.25;;;-3.81;76.68
76998;BME280;65930;48.874;10.734;2023-02-28T05:10:16;96589.00;;;-3.87;76.39
76998;BME280;65930;48.874;10.734;2023-02-28T05:12:44;96599.41;;;-3.94;76.50
76998;BME280;65930;48.874;10.734;2023-02-28T05:15:14;96602.91;;;-3.93;76.26
76998;BME280;65930;48.874;10.734;2023-02-28T05:17:43;96600.41;;;-3.90;76.32
76998;BME280;65930;48.874;10.734;2023-02-28T05:20:12;96598.72;;;-3.86;76.28
76998;BME280;65930;48.874;10.734;2023-02-28T05:22:42;96592.00;;;-3.88;76.40
76998;BME280;65930;48.874;10.734;2023-02-28T05:25:13;96592.97;;;-3.98;76.97
76998;BME280;65930;48.874;10.734;2023-02-28T05:27:43;96597.38;;;-4.02;77.22
76998;BME280;65930;48.874;10.734;2023-02-28T05:30:12;96586.75;;;-3.98;76.46
76998;BME280;65930;48.874;10.734;2023-02-28T05:32:41;96587.13;;;-4.05;76.74
76998;BME280;65930;48.874;10.734;2023-02-28T05:35:11;96602.25;;;-4.04;76.52
76998;BME280;65930;48.874;10.734;2023-02-28T05:37:39;96596.84;;;-4.04;76.41
76998;BME280;65930;48.874;10.734;2023-02-28T05:40:08;96597.06;;;-4.01;76.26
76998;BME280;65930;48.874;10.734;2023-02-28T05:42:37;96590.28;;;-3.98;76.87
76998;BME280;65930;48.874;10.734;2023-02-28T05:45:07;96596.25;;;-4.01;76.17
76998;BME280;65930;48.874;10.734;2023-02-28T05:47:35;96600.88;;;-4.02;76.54
76998;BME280;65930;48.874;10.734;2023-02-28T05:50:04;96606.44;;;-3.93;76.41
76998;BME280;65930;48.874;10.734;2023-02-28T05:52:34;96601.16;;;-4.03;76.35
76998;BME280;65930;48.874;10.734;2023-02-28T05:55:02;96594.28;;;-4.14;76.89
76998;BME280;65930;48.874;10.734;2023-02-28T05:57:30;96613.53;;;-4.16;76.73
76998;BME280;65930;48.874;10.734;2023-02-28T05:59:57;96603.50;;;-4.15;76.83
76998;BME280;65930;48.874;10.734;2023-02-28T06:02:25;96607.25;;;-4.11;76.84
76998;BME280;65930;48.874;10.734;2023-02-28T06:04:53;96610.25;;;-4.13;76.85
76998;BME280;65930;48.874;10.734;2023-02-28T06:07:21;96602.94;;;-4.12;76.62
76998;BME280;65930;48.874;10.734;2023-02-28T06:09:51;96610.44;;;-4.09;76.43
76998;BME280;65930;48.874;10.734;2023-02-28T06:12:19;96610.38;;;-4.04;76.82
76998;BME280;65930;48.874;10.734;2023-02-28T06:14:47;96605.41;;;-3.97;76.57
76998;BME280;65930;48.874;10.734;2023-02-28T06:17:14;96615.03;;;-3.91;75.99
76998;BME280;65930;48.874;10.734;2023-02-28T06:19:42;96611.47;;;-4.05;76.69
76998;BME280;65930;48.874;10.734;2023-02-28T06:22:10;96614.97;;;-4.05;76.83
76998;BME280;65930;48.874;10.734;2023-02-28T06:24:38;96610.22;;;-3.94;76.05
76998;BME280;65930;48.874;10.734;2023-02-28T06:27:07;96626.53;;;-3.99;76.86
76998;BME280;65930;48.874;10.734;2023-02-28T06:29:35;96610.31;;;-3.99;76.69
76998;BME280;65930;48.874;10.734;2023-02-28T06:32:06;96617.25;;;-3.93;75.99
76998;BME280;65930;48.874;10.734;2023-02-28T06:34:34;96616.06;;;-3.87;75.73
76998;BME280;65930;48.874;10.734;2023-02-28T06:37:03;96620.50;;;-3.77;75.56
76998;BME280;65930;48.874;10.734;2023-02-28T06:39:31;96629.34;;;-3.72;75.52
76998;BME280;65930;48.874;10.734;2023-02-28T06:41:59;96629.28;;;-3.67;76.33
76998;BME280;65930;48.874;10.734;2023-02-28T06:44:28;96633.94;;;-3.53;75.19
76998;BME280;65930;48.874;10.734;2023-02-28T06:47:02;96635.47;;;-3.47;74.90
76998;BME280;65930;48.874;10.734;2023-02-28T06:49:32;96640.28;;;-3.44;75.00
76998;BME280;65930;48.874;10.734;2023-02-28T06:52:01;96646.53;;;-3.30;73.68
76998;BME280;65930;48.874;10.734;2023-02-28T06:54:29;96639.81;;;-3.33;74.29
76998;BME280;65930;48.874;10.734;2023-02-28T06:56:57;96642.22;;;-3.31;74.16
76998;BME280;65930;48.874;10.734;2023-02-28T06:59:25;96644.16;;;-3.18;73.37
76998;BME280;65930;48.874;10.734;2023-02-28T07:01:55;96639.63;;;-3.23;73.64
76998;BME280;65930;48.874;10.734;2023-02-28T07:04:23;96644.16;;;-3.18;73.92
76998;BME280;65930;48.874;10.734;2023-02-28T07:06:51;96642.38;;;-3.09;73.82
76998;BME280;65930;48.874;10.734;2023-02-28T07:09:18;96649.88;;;-3.06;73.70
76998;BME280;65930;48.874;10.734;2023-02-28T07:11:47;96655.22;;;-3.01;72.95
76998;BME280;65930;48.874;10.734;2023-02-28T07:14:15;96656.84;;;-3.00;72.76
76998;BME280;65930;48.874;10.734;2023-02-28T07:16:43;96660.72;;;-3.06;73.36
76998;BME280;65930;48.874;10.734;2023-02-28T07:19:13;96669.69;;;-2.92;72.37
76998;BME280;65930;48.874;10.734;2023-02-28T07:21:41;96656.56;;;-2.85;72.67
76998;BME280;65930;48.874;10.734;2023-02-28T07:24:09;96662.56;;;-2.88;72.19
76998;BME280;65930;48.874;10.734;2023-02-28T07:26:37;96666.38;;;-2.89;72.83
76998;BME280;65930;48.874;10.734;2023-02-28T07:29:05;96674.63;;;-2.67;72.50
76998;BME280;65930;48.874;10.734;2023-02-28T07:31:32;96670.22;;;-2.62;71.13
76998;BME280;65930;48.874;10.734;2023-02-28T07:34:00;96667.31;;;-2.52;72.11
76998;BME280;65930;48.874;10.734;2023-02-28T07:36:30;96662.28;;;-2.45;71.99
76998;BME280;65930;48.874;10.734;2023-02-28T07:38:58;96661.66;;;-2.42;71.42
76998;BME280;65930;48.874;10.734;2023-02-28T07:41:26;96669.59;;;-2.46;71.50
76998;BME280;65930;48.874;10.734;2023-02-28T07:43:56;96674.94;;;-2.41;71.08
76998;BME280;65930;48.874;10.734;2023-02-28T07:46:26;96670.22;;;-2.35;70.73
76998;BME280;65930;48.874;10.734;2023-02-28T07:48:56;96681.56;;;-2.19;70.91
76998;BME280;65930;48.874;10.734;2023-02-28T07:51:26;96672.88;;;-2.08;70.52
76998;BME280;65930;48.874;10.734;2023-02-28T07:53:56;96678.81;;;-2.06;70.78
76998;BME280;65930;48.874;10.734;2023-02-28T07:56:24;96677.59;;;-2.00;70.07
76998;BME280;65930;48.874;10.734;2023-02-28T07:58:52;96665.34;;;-2.11;70.51
76998;BME280;65930;48.874;10.734;2023-02-28T08:01:20;96670.88;;;-2.02;69.46
76998;BME280;65930;48.874;10.734;2023-02-28T08:03:48;96673.13;;;-1.96;69.04
76998;BME280;65930;48.874;10.734;2023-02-28T08:06:18;96671.09;;;-1.77;69.28
76998;BME280;65930;48.874;10.734;2023-02-28T08:08:47;96667.41;;;-1.58;68.43
76998;BME280;65930;48.874;10.734;2023-02-28T08:11:17;96672.34;;;-1.60;68.45
76998;BME280;65930;48.874;10.734;2023-02-28T08:13:46;96672.00;;;-1.45;67.92
76998;BME280;65930;48.874;10.734;2023-02-28T08:16:14;96666.41;;;-1.18;66.59
76998;BME280;65930;48.874;10.734;2023-02-28T08:18:48;96667.94;;;-1.03;66.35
76998;BME280;65930;48.874;10.734;2023-02-28T08:21:17;96675.09;;;-1.07;65.69
76998;BME280;65930;48.874;10.734;2023-02-28T08:23:46;96677.28;;;-1.18;66.06
76998;BME280;65930;48.874;10.734;2023-02-28T08:26:16;96667.81;;;-0.98;65.63
76998;BME280;65930;48.874;10.734;2023-02-28T08:28:45;96679.81;;;-0.99;65.23
76998;BME280;65930;48.874;10.734;2023-02-28T08:31:15;96674.28;;;-0.85;65.20
76998;BME280;65930;48.874;10.734;2023-02-28T08:33:44;96672.75;;;-0.69;64.77
76998;BME280;65930;48.874;10.734;2023-02-28T08:36:12;96671.38;;;-0.58;63.95
76998;BME280;65930;48.874;10.734;2023-02-28T08:38:41;96663.97;;;-0.66;63.65
76998;BME280;65930;48.874;10.734;2023-02-28T08:41:12;96658.81;;;-0.76;63.88
76998;BME280;65930;48.874;10.734;2023-02-28T08:43:41;96663.16;;;-0.98;62.69
76998;BME280;65930;48.874;10.734;2023-02-28T08:46:12;96675.56;;;-0.83;63.51
76998;BME280;65930;48.874;10.734;2023-02-28T08:48:40;96677.06;;;-0.68;64.32
76998;BME280;65930;48.874;10.734;2023-02-28T08:51:10;96678.59;;;-0.54;62.76
76998;BME280;65930;48.874;10.734;2023-02-28T08:53:40;96684.66;;;-0.57;62.71
76998;BME280;65930;48.874;10.734;2023-02-28T08:56:10;96682.41;;;-0.55;62.07
76998;BME280;65930;48.874;10.734;2023-02-28T08:58:40;96681.72;;;-0.69;61.95
76998;BME280;65930;48.874;10.734;2023-02-28T09:01:11;96677.84;;;-0.37;62.30
76998;BME280;65930;48.874;10.734;2023-02-28T09:03:40;96680.50;;;-0.15;61.17
76998;BME280;65930;48.874;10.734;2023-02-28T09:06:10;96654.53;;;-0.04;59.26
76998;BME280;65930;48.874;10.734;2023-02-28T09:08:39;96672.53;;;-0.42;60.21
76998;BME280;65930;48.874;10.734;2023-02-28T09:11:07;96674.34;;;-0.29;59.98
76998;BME280;65930;48.874;10.734;2023-02-28T09:13:36;96668.78;;;-0.24;59.63
76998;BME280;65930;48.874;10.734;2023-02-28T09:16:08;96677.91;;;-0.20;59.01
76998;BME280;65930;48.874;10.734;2023-02-28T09:18:38;96679.03;;;-0.12;59.10
76998;BME280;65930;48.874;10.734;2023-02-28T09:21:08;96670.69;;;-0.24;59.61
76998;BME280;65930;48.874;10.734;2023-02-28T09:23:36;96681.09;;;-0.18;58.95
76998;BME280;65930;48.874;10.734;2023-02-28T09:26:05;96679.19;;;-0.09;58.21
76998;BME280;65930;48.874;10.734;2023-02-28T09:28:34;96675.09;;;0.20;57.15
76998;BME280;65930;48.874;10.734;2023-02-28T09:31:02;96675.44;;;0.18;57.92
76998;BME280;65930;48.874;10.734;2023-02-28T09:33:32;96681.69;;;0.44;59.15
76998;BME280;65930;48.874;10.734;2023-02-28T09:36:03;96686.50;;;0.48;57.44
76998;BME280;65930;48.874;10.734;2023-02-28T09:38:31;96683.28;;;0.71;57.39
76998;BME280;65930;48.874;10.734;2023-02-28T09:41:02;96684.09;;;0.55;57.43
76998;BME280;65930;48.874;10.734;2023-02-28T09:43:35;96686.00;;;0.63;56.30
76998;BME280;65930;48.874;10.734;2023-02-28T09:46:14;96681.22;;;0.51;57.46
76998;BME280;65930;48.874;10.734;2023-02-28T09:48:47;96677.34;;;0.61;57.35
76998;BME280;65930;48.874;10.734;2023-02-28T09:51:30;96678.16;;;0.61;57.24
76998;BME280;65930;48.874;10.734;2023-02-28T09:54:01;96681.19;;;0.85;57.06
76998;BME280;65930;48.874;10.734;2023-02-28T09:56:35;96677.19;;;0.83;55.83
76998;BME280;65930;48.874;10.734;2023-02-28T09:59:13;96678.13;;;0.87;56.18
76998;BME280;65930;48.874;10.734;2023-02-28T10:01:54;96684.06;;;0.80;55.07
76998;BME280;65930;48.874;10.734;2023-02-28T10:04:41;96678.44;;;1.11;55.99
76998;BME280;65930;48.874;10.734;2023-02-28T10:07:22;96691.31;;;1.40;56.14
76998;BME280;65930;48.874;10.734;2023-02-28T10:09:58;96688.13;;;1.38;55.05
76998;BME280;65930;48.874;10.734;2023-02-28T10:12:31;96688.47;;;1.28;55.11
76998;BME280;65930;48.874;10.734;2023-02-28T10:15:01;96694.59;;;1.25;55.55
76998;BME280;65930;48.874;10.734;2023-02-28T10:17:39;96697.97;;;1.22;55.65
76998;BME280;65930;48.874;10.734;2023-02-28T10:20:34;96702.97;;;1.20;56.07
76998;BME280;65930;48.874;10.734;2023-02-28T10:23:12;96694.59;;;1.25;55.31
76998;BME280;65930;48.874;10.734;2023-02-28T10:25:46;96694.00;;;1.11;55.98
76998;BME280;65930;48.874;10.734;2023-02-28T10:28:17;96688.19;;;1.21;54.28
76998;BME280;65930;48.874;10.734;2023-02-28T10:30:47;96700.00;;;1.42;54.11
76998;BME280;65930;48.874;10.734;2023-02-28T10:33:20;96690.25;;;1.32;55.22
76998;BME280;65930;48.874;10.734;2023-02-28T10:35:52;96691.91;;;1.54;54.98
76998;BME280;65930;48.874;10.734;2023-02-28T10:38:24;96698.88;;;1.43;54.68
76998;BME280;65930;48.874;10.734;2023-02-28T10:41:03;96706.94;;;1.77;55.05
76998;BME280;65930;48.874;10.734;2023-02-28T10:43:33;96705.63;;;1.84;54.14
76998;BME280;65930;48.874;10.734;2023-02-28T10:46:09;96697.59;;;1.78;53.64
76998;BME280;65930;48.874;10.734;2023-02-28T10:48:45;96715.97;;;1.69;53.67
76998;BME280;65930;48.874;10.734;2023-02-28T10:51:19;96713.41;;;1.64;54.38
76998;BME280;65930;48.874;10.734;2023-02-28T10:53:51;96714.31;;;1.39;55.07
76998;BME280;65930;48.874;10.734;2023-02-28T10:56:28;96713.81;;;1.37;55.40
76998;BME280;65930;48.874;10.734;2023-02-28T10:58:59;96711.53;;;1.56;54.07
76998;BME280;65930;48.874;10.734;2023-02-28T11:01:37;96728.56;;;1.53;53.98
76998;BME280;65930;48.874;10.734;2023-02-28T11:04:17;96723.69;;;1.67;54.90
76998;BME280;65930;48.874;10.734;2023-02-28T11:06:56;96727.78;;;1.91;55.86
76998;BME280;65930;48.874;10.734;2023-02-28T11:09:30;96725.66;;;1.96;53.75
76998;BME280;65930;48.874;10.734;2023-02-28T11:12:00;96713.50;;;1.85;54.66
76998;BME280;65930;48.874;10.734;2023-02-28T11:14:32;96716.50;;;1.92;53.73
76998;BME280;65930;48.874;10.734;2023-02-28T11:17:14;96722.69;;;1.81;54.42
76998;BME280;65930;48.874;10.734;2023-02-28T11:19:46;96705.50;;;1.80;54.27
76998;BME280;65930;48.874;10.734;2023-02-28T11:22:20;96716.31;;;1.97;54.13
76998;BME280;65930;48.874;10.734;2023-02-28T11:24:52;96706.94;;;2.07;54.10
76998;BME280;65930;48.874;10.734;2023-02-28T11:27:47;96711.47;;;2.03;53.31
76998;BME280;65930;48.874;10.734;2023-02-28T11:30:34;96709.97;;;2.14;53.44
76998;BME280;65930;48.874;10.734;2023-02-28T11:33:21;96708.16;;;1.89;53.95
76998;BME280;65930;48.874;10.734;2023-02-28T11:35:51;96707.94;;;2.02;54.40
76998;BME280;65930;48.874;10.734;2023-02-28T11:38:21;96698.75;;;2.07;54.87
76998;BME280;65930;48.874;10.734;2023-02-28T11:41:07;96698.50;;;2.00;53.60
76998;BME280;65930;48.874;10.734;2023-02-28T11:43:54;96694.59;;;2.01;53.15
76998;BME280;65930;48.874;10.734;2023-02-28T11:46:32;96688.13;;;2.14;54.51
76998;BME280;65930;48.874;10.734;2023-02-28T11:49:15;96689.63;;;2.03;53.51
76998;BME280;65930;48.874;10.734;2023-02-28T11:51:56;96680.91;;;2.09;54.77
76998;BME280;65930;48.874;10.734;2023-02-28T11:54:51;96682.25;;;2.24;55.49
76998;BME280;65930;48.874;10.734;2023-02-28T11:57:35;96685.75;;;2.33;54.26
76998;BME280;65930;48.874;10.734;2023-02-28T12:00:17;96685.06;;;2.36;54.08
76998;BME280;65930;48.874;10.734;2023-02-28T12:03:03;96688.69;;;2.28;54.70
76998;BME280;65930;48.874;10.734;2023-02-28T12:05:40;96688.31;;;2.30;54.01
76998;BME280;65930;48.874;10.734;2023-02-28T12:08:27;96680.94;;;2.51;53.94
76998;BME280;65930;48.874;10.734;2023-02-28T12:11:09;96684.00;;;2.49;53.61
76998;BME280;65930;48.874;10.734;2023-02-28T12:13:48;96688.41;;;2.62;53.62
76998;BME280;65930;48.874;10.734;2023-02-28T12:16:40;96673.34;;;2.56;54.20
76998;BME280;65930;48.874;10.734;2023-02-28T12:19:19;96697.56;;;2.46;52.75
76998;BME280;65930;48.874;10.734;2023-02-28T12:22:10;96688.75;;;2.61;53.43
76998;BME280;65930;48.874;10.734;2023-02-28T12:24:54;96689.34;;;2.66;53.39
76998;BME280;65930;48.874;10.734;2023-02-28T12:27:29;96699.00;;;2.43;51.92
76998;BME280;65930;48.874;10.734;2023-02-28T12:30:04;96697.19;;;2.47;52.94
76998;BME280;65930;48.874;10.734;2023-02-28T12:32:37;96685.94;;;2.70;54.38
76998;BME280;65930;48.874;10.734;2023-02-28T12:35:14;96688.69;;;2.70;52.10
76998;BME280;65930;48.874;10.734;2023-02-28T12:37:49;96684.66;;;2.67;51.91
76998;BME280;65930;48.874;10.734;2023-02-28T12:40:21;96685.88;;;2.78;52.30
76998;BME280;65930;48.874;10.734;2023-02-28T12:42:54;96682.53;;;2.73;51.51
76998;BME280;65930;48.874;10.734;2023-02-28T12:45:28;96683.81;;;2.75;53.23
76998;BME280;65930;48.874;10.734;2023-02-28T12:48:04;96674.38;;;2.85;53.07
76998;BME280;65930;48.874;10.734;2023-02-28T12:50:37;96678.28;;;2.84;52.98
76998;BME280;65930;48.874;10.734;2023-02-28T12:53:12;96678.28;;;2.84;50.50
76998;BME280;65930;48.874;10.734;2023-02-28T12:55:48;96667.31;;;2.84;53.08
76998;BME280;65930;48.874;10.734;2023-02-28T12:58:27;96674.03;;;2.86;51.75
76998;BME280;65930;48.874;10.734;2023-02-28T13:07:17;96660.75;;;2.97;52.87
76998;BME280;65930;48.874;10.734;2023-02-28T13:09:53;96665.97;;;2.90;52.55
76998;BME280;65930;48.874;10.734;2023-02-28T13:12:23;96656.38;;;2.84;52.19
76998;BME280;65930;48.874;10.734;2023-02-28T13:15:05;96647.88;;;2.97;52.35
76998;BME280;65930;48.874;10.734;2023-02-28T13:17:40;96669.59;;;2.82;52.69
76998;BME280;65930;48.874;10.734;2023-02-28T13:20:17;96652.00;;;2.71;51.60
76998;BME280;65930;48.874;10.734;2023-02-28T13:22:47;96649.59;;;2.69;53.55
76998;BME280;65930;48.874;10.734;2023-02-28T13:34:46;96662.31;;;2.86;51.33
76998;BME280;65930;48.874;10.734;2023-02-28T13:37:41;96646.44;;;2.79;50.97
76998;BME280;65930;48.874;10.734;2023-02-28T13:40:31;96649.41;;;2.86;51.25